Time;durP1;ratioP1;P1;durP2;ratioP2;P2;SDS_P1;SDS_P2;PMS_P1;PMS_P2;Temp;Humidity;BMP_temperature;BMP_pressure;BME280_temperature;BME280_humidity;BME280_pressure;Samples;Min_cycle;Max_cycle;Signal;HPM_P1;HPM_P2
2023/08/27 00:00:54;;;;;;;4.20;3.90;;;;;;;13.92;100.00;100858.50;1041117;28;20051;-49
2023/08/27 00:01:46;;;;;;;5.38;4.05;;;;;;;13.90;100.00;100855.25;1036227;28;20176;-54
2023/08/27 00:02:42;;;;;;;7.05;4.82;;;;;;;13.93;100.00;100860.13;1027458;28;20560;-49
2023/08/27 00:03:29;;;;;;;4.57;4.05;;;;;;;13.98;100.00;100864.00;1035873;28;20336;-50
2023/08/27 00:04:16;;;;;;;6.05;4.00;;;;;;;14.00;100.00;100859.22;1043651;28;20338;-54
2023/08/27 00:05:09;;;;;;;5.68;4.53;;;;;;;14.00;100.00;100870.72;1040232;28;20042;-49
2023/08/27 00:05:42;;;;;;;5.47;3.83;;;;;;;14.03;100.00;100864.91;1035068;28;20045;-50
2023/08/27 00:06:13;;;;;;;4.78;4.32;;;;;;;13.91;100.00;100867.59;1038794;28;20299;-50
2023/08/27 00:06:45;;;;;;;5.22;4.53;;;;;;;13.98;100.00;100872.84;1043632;28;20051;-50
2023/08/27 00:07:17;;;;;;;4.57;4.18;;;;;;;13.91;100.00;100866.78;1047038;28;20314;-50
2023/08/27 00:07:48;;;;;;;5.10;4.70;;;;;;;13.97;100.00;100871.22;1047884;28;20306;-49
2023/08/27 00:08:20;;;;;;;6.70;5.30;;;;;;;13.94;100.00;100868.97;1047887;28;20040;-51
2023/08/27 00:08:51;;;;;;;7.40;5.05;;;;;;;13.80;100.00;100871.13;1047037;28;20490;-50
2023/08/27 00:09:23;;;;;;;5.28;4.88;;;;;;;13.67;100.00;100871.38;1047490;28;20123;-52
2023/08/27 00:09:54;;;;;;;5.20;4.55;;;;;;;13.65;100.00;100878.81;1047526;28;20041;-50
2023/08/27 00:10:26;;;;;;;5.35;4.95;;;;;;;13.78;100.00;100875.91;1047349;28;20059;-52
2023/08/27 00:10:59;;;;;;;9.98;4.57;;;;;;;13.74;100.00;100872.09;1047738;28;20045;-51
2023/08/27 00:11:30;;;;;;;5.72;4.38;;;;;;;13.69;100.00;100876.50;1047726;28;20044;-52
2023/08/27 00:12:03;;;;;;;6.60;4.85;;;;;;;13.82;100.00;100866.34;1047972;28;20101;-52
2023/08/27 00:12:35;;;;;;;4.43;4.13;;;;;;;13.96;100.00;100868.75;1047685;28;20045;-50
2023/08/27 00:13:06;;;;;;;6.43;5.43;;;;;;;13.97;100.00;100860.50;1047590;28;20072;-52
2023/08/27 00:13:38;;;;;;;8.05;4.72;;;;;;;13.91;100.00;100862.25;1048034;28;20036;-51
2023/08/27 00:14:09;;;;;;;4.53;4.07;;;;;;;13.84;100.00;100861.56;1047454;28;20041;-49
2023/08/27 00:14:41;;;;;;;4.00;3.70;;;;;;;13.68;100.00;100859.63;1048080;28;20052;-49
2023/08/27 00:15:13;;;;;;;3.55;3.28;;;;;;;13.58;100.00;100852.19;1045660;28;20037;-51
2023/08/27 00:15:46;;;;;;;3.95;3.45;;;;;;;13.65;100.00;100846.72;1047426;28;20056;-50
2023/08/27 00:16:17;;;;;;;6.95;4.43;;;;;;;13.80;100.00;100849.72;1047545;28;20048;-51
2023/08/27 00:16:50;;;;;;;5.00;3.92;;;;;;;13.89;100.00;100848.28;1047984;28;20041;-49
2023/08/27 00:17:21;;;;;;;5.40;4.25;;;;;;;13.96;100.00;100847.31;1047460;28;20044;-49
2023/08/27 00:17:53;;;;;;;6.20;3.45;;;;;;;13.90;100.00;100844.53;1048060;28;20036;-52
2023/08/27 00:18:25;;;;;;;4.75;4.20;;;;;;;13.98;100.00;100840.69;1047433;28;20344;-49
2023/08/27 00:18:56;;;;;;;3.90;3.50;;;;;;;13.92;100.00;100842.44;1047805;28;20040;-50
2023/08/27 00:19:28;;;;;;;6.68;4.38;;;;;;;13.74;100.00;100837.28;1047789;28;20040;-49
2023/08/27 00:20:00;;;;;;;4.55;4.20;;;;;;;13.78;100.00;100841.09;1047783;28;20037;-52
2023/08/27 00:20:33;;;;;;;4.55;4.15;;;;;;;13.79;100.00;100837.38;1047732;28;20078;-48
2023/08/27 00:21:04;;;;;;;4.60;4.20;;;;;;;13.76;100.00;100834.38;1047626;28;20060;-50
2023/08/27 00:21:36;;;;;;;4.00;3.40;;;;;;;13.81;100.00;100837.13;1047691;28;20048;-49
2023/08/27 00:22:07;;;;;;;5.05;3.80;;;;;;;13.83;100.00;100829.69;1047827;28;20170;-52
2023/08/27 00:22:39;;;;;;;6.07;4.65;;;;;;;13.73;100.00;100832.97;1047546;28;20077;-51
2023/08/27 00:23:13;;;;;;;4.40;4.00;;;;;;;13.66;100.00;100826.09;1047876;28;20036;-48
2023/08/27 00:23:45;;;;;;;4.72;3.45;;;;;;;13.62;100.00;100833.81;1047882;28;20052;-50
2023/08/27 00:24:16;;;;;;;6.68;4.05;;;;;;;13.43;100.00;100829.66;1047574;28;20041;-52
2023/08/27 00:24:48;;;;;;;3.97;3.67;;;;;;;13.39;100.00;100826.63;1048038;28;20059;-49
2023/08/27 00:25:20;;;;;;;4.88;4.25;;;;;;;13.38;100.00;100834.88;1045480;28;20045;-52
2023/08/27 00:25:51;;;;;;;4.35;3.95;;;;;;;13.39;100.00;100826.63;1047601;28;20487;-48
2023/08/27 00:26:23;;;;;;;3.78;3.47;;;;;;;13.56;100.00;100832.88;1047953;28;20197;-49
2023/08/27 00:26:54;;;;;;;3.92;3.63;;;;;;;13.60;100.00;100825.19;1047872;28;20041;-50
2023/08/27 00:27:26;;;;;;;9.57;4.30;;;;;;;13.67;100.00;100825.88;1047506;28;20090;-52
2023/08/27 00:27:58;;;;;;;4.13;3.83;;;;;;;13.69;100.00;100828.31;1047862;28;20037;-51
2023/08/27 00:28:30;;;;;;;4.18;3.78;;;;;;;13.68;100.00;100830.16;1047700;28;20040;-51
2023/08/27 00:29:03;;;;;;;3.53;3.30;;;;;;;13.61;100.00;100832.19;1043079;28;20048;-50
2023/08/27 00:29:34;;;;;;;3.38;3.17;;;;;;;13.51;100.00;100829.31;1038688;28;20049;-50
2023/08/27 00:30:06;;;;;;;4.30;3.80;;;;;;;13.57;100.00;100833.69;1039099;28;20668;-50
2023/08/27 00:30:38;;;;;;;3.55;3.25;;;;;;;13.54;100.00;100818.13;1039751;28;20167;-51
2023/08/27 00:31:10;;;;;;;3.45;3.15;;;;;;;13.44;100.00;100834.78;1035473;28;20411;-51
2023/08/27 00:31:42;;;;;;;4.50;4.13;;;;;;;13.53;100.00;100827.19;1040324;28;20106;-50
2023/08/27 00:32:13;;;;;;;4.35;3.95;;;;;;;13.65;100.00;100833.31;1044263;28;20127;-49
2023/08/27 00:32:57;;;;;;;7.70;4.07;;;;;;;13.43;100.00;100835.03;1044064;28;20095;-50
2023/08/27 00:33:30;;;;;;;4.47;4.07;;;;;;;13.42;100.00;100836.03;1043891;28;20041;-49
2023/08/27 00:34:01;;;;;;;4.82;3.10;;;;;;;13.44;100.00;100839.31;1039822;28;20045;-51
2023/08/27 00:34:34;;;;;;;3.25;3.05;;;;;;;13.24;100.00;100843.16;1040499;28;20042;-49
2023/08/27 00:35:06;;;;;;;3.72;3.42;;;;;;;13.19;100.00;100832.38;1042486;28;20045;-50
2023/08/27 00:35:37;;;;;;;3.40;3.20;;;;;;;13.16;100.00;100837.34;1047962;28;20040;-49
2023/08/27 00:36:09;;;;;;;3.30;3.08;;;;;;;13.32;100.00;100842.00;1048655;28;20371;-49
2023/08/27 00:36:41;;;;;;;2.90;2.63;;;;;;;13.37;100.00;100839.41;1046028;28;20037;-52
2023/08/27 00:37:12;;;;;;;5.13;3.63;;;;;;;13.35;100.00;100840.72;1048027;28;20046;-49
2023/08/27 00:37:44;;;;;;;3.03;2.72;;;;;;;13.43;100.00;100843.03;1048372;28;20046;-52
2023/08/27 00:38:35;;;;;;;5.82;3.60;;;;;;;13.45;100.00;100835.59;1050556;28;20516;-54
2023/08/27 00:39:48;;;;;;;3.88;3.58;;;;;;;13.48;100.00;100829.78;1036056;28;20535;-54
2023/08/27 00:40:31;;;;;;;4.93;3.33;;;;;;;13.32;100.00;100831.28;1034279;28;20049;-50
2023/08/27 00:41:19;;;;;;;3.75;3.45;;;;;;;13.47;100.00;100844.19;1040521;28;20045;-55
2023/08/27 00:42:10;;;;;;;4.05;3.67;;;;;;;13.47;100.00;100825.47;1043178;28;20053;-50
2023/08/27 00:43:02;;;;;;;4.65;3.30;;;;;;;13.49;100.00;100837.56;1044040;28;20545;-51
2023/08/27 00:44:00;;;;;;;7.30;4.03;;;;;;;13.41;100.00;100829.06;1044650;28;20526;-50
2023/08/27 00:44:41;;;;;;;6.85;3.00;;;;;;;13.37;100.00;100833.25;1034489;28;20516;-53
2023/08/27 00:45:42;;;;;;;5.70;4.10;;;;;;;13.20;100.00;100828.63;1038011;28;20042;-48
2023/08/27 00:46:53;;;;;;;3.65;3.35;;;;;;;13.14;100.00;100834.88;1041957;28;20042;-54
2023/08/27 00:47:27;;;;;;;3.85;3.13;;;;;;;13.07;100.00;100831.50;1035607;28;20496;-54
2023/08/27 00:47:59;;;;;;;4.10;3.65;;;;;;;12.91;100.00;100834.88;1035828;28;20041;-55
2023/08/27 00:48:30;;;;;;;5.43;3.53;;;;;;;12.94;100.00;100834.41;1030675;28;20046;-51
2023/08/27 00:49:02;;;;;;;3.05;2.78;;;;;;;12.83;100.00;100829.84;1028499;28;20313;-55
2023/08/27 00:49:35;;;;;;;3.88;3.20;;;;;;;12.84;100.00;100840.31;1027559;28;20082;-55
2023/08/27 00:50:08;;;;;;;3.42;3.13;;;;;;;12.97;100.00;100828.59;1028776;28;20043;-53
2023/08/27 00:50:40;;;;;;;5.30;3.50;;;;;;;12.90;100.00;100834.06;1036419;28;20056;-54
2023/08/27 00:51:12;;;;;;;5.47;2.75;;;;;;;12.93;100.00;100835.47;1036186;28;20096;-53
2023/08/27 00:51:45;;;;;;;3.03;2.83;;;;;;;12.82;100.00;100829.03;1031431;28;20046;-54
2023/08/27 00:52:19;;;;;;;3.25;3.05;;;;;;;12.67;100.00;100823.34;1027396;28;20672;-54
2023/08/27 00:52:51;;;;;;;3.60;3.38;;;;;;;12.63;100.00;100828.34;1028036;28;20887;-53
2023/08/27 00:53:23;;;;;;;3.45;3.20;;;;;;;12.62;100.00;100825.91;1032825;28;20312;-54
2023/08/27 00:53:54;;;;;;;4.53;3.20;;;;;;;12.77;100.00;100825.44;1036565;28;20048;-54
2023/08/27 00:54:26;;;;;;;5.68;3.83;;;;;;;12.61;100.00;100819.75;1035326;28;20129;-54
2023/08/27 00:54:59;;;;;;;4.20;3.35;;;;;;;12.36;100.00;100824.44;1035686;28;20042;-54
2023/08/27 00:55:31;;;;;;;7.40;4.25;;;;;;;12.45;100.00;100820.41;1035941;28;20307;-54
2023/08/27 00:56:03;;;;;;;3.33;3.13;;;;;;;12.55;100.00;100820.63;1035708;28;20556;-53
2023/08/27 00:56:35;;;;;;;4.97;3.35;;;;;;;12.51;100.00;100822.16;1036966;28;20046;-55
2023/08/27 00:57:09;;;;;;;3.45;3.25;;;;;;;12.54;100.00;100829.69;1035921;28;20492;-54
2023/08/27 00:58:37;;;;;;;3.25;2.95;;;;;;;12.66;100.00;100822.53;1032252;28;20054;-54
2023/08/27 00:59:26;;;;;;;3.95;3.13;;;;;;;12.73;100.00;100826.94;1028681;28;20074;-49
2023/08/27 01:00:20;;;;;;;4.30;3.55;;;;;;;12.75;100.00;100831.03;1034370;28;20056;-51
2023/08/27 01:00:59;;;;;;;4.70;3.42;;;;;;;12.81;100.00;100829.28;1033806;28;20150;-54
2023/08/27 01:01:53;;;;;;;4.07;3.65;;;;;;;12.36;100.00;100821.78;1040441;28;20308;-54
2023/08/27 01:02:46;;;;;;;5.95;3.60;;;;;;;12.37;100.00;100820.72;1035675;28;20258;-48
2023/08/27 01:03:35;;;;;;;3.97;3.25;;;;;;;12.48;100.00;100821.78;1034834;28;20042;-50
2023/08/27 01:04:20;;;;;;;6.28;3.75;;;;;;;12.55;100.00;100825.97;1036939;28;20301;-54
2023/08/27 01:04:57;;;;;;;4.00;3.70;;;;;;;12.51;100.00;100832.84;1035675;28;20945;-50
2023/08/27 01:06:04;;;;;;;3.38;2.60;;;;;;;12.54;100.00;100823.53;1032980;28;20772;-55
2023/08/27 01:06:51;;;;;;;3.50;3.25;;;;;;;12.71;100.00;100829.03;1030854;28;20047;-50
2023/08/27 01:08:04;;;;;;;3.92;2.95;;;;;;;12.99;100.00;100831.84;1033799;28;20388;-48
2023/08/27 01:09:03;;;;;;;;;;;;;;;;;;;;;
2023/08/27 01:10:07;;;;;;;4.90;3.38;;;;;;;13.13;100.00;100827.88;1041373;28;19921;-53
2023/08/27 01:11:19;;;;;;;3.92;3.58;;;;;;;13.20;100.00;100822.47;1029024;28;20419;-53
2023/08/27 01:12:13;;;;;;;4.25;3.42;;;;;;;13.21;100.00;100827.59;1029163;28;20046;-52
2023/08/27 01:13:20;;;;;;;3.67;3.38;;;;;;;13.19;100.00;100818.19;1030992;28;20302;-54
2023/08/27 01:14:26;;;;;;;4.85;2.97;;;;;;;13.14;100.00;100826.84;1037072;28;20289;-53
2023/08/27 01:15:12;;;;;;;4.00;3.70;;;;;;;13.27;100.00;100823.97;1041861;28;20422;-55
2023/08/27 01:17:38;;;;;;;3.78;3.47;;;;;;;13.18;100.00;100817.38;1028457;28;20054;-52
2023/08/27 01:18:21;;;;;;;6.85;3.40;;;;;;;13.28;100.00;100814.91;1038924;28;20502;-55
2023/08/27 01:19:32;;;;;;;4.50;4.10;;;;;;;13.39;100.00;100820.47;1037498;28;20535;-52
2023/08/27 01:20:43;;;;;;;4.25;3.85;;;;;;;13.28;100.00;100809.56;1046004;28;20761;-49
2023/08/27 01:21:39;;;;;;;4.18;3.75;;;;;;;13.09;100.00;100802.66;1040025;28;20045;-54
2023/08/27 01:22:50;;;;;;;4.07;3.75;;;;;;;13.04;100.00;100805.22;1042172;28;20056;-55
2023/08/27 01:23:48;;;;;;;4.03;3.72;;;;;;;13.31;100.00;100802.91;1042951;28;20331;-55
2023/08/27 01:25:45;;;;;;;4.18;3.78;;;;;;;13.47;100.00;100796.84;1036689;28;20362;-50
2023/08/27 01:26:40;;;;;;;4.28;3.65;;;;;;;13.49;100.00;100797.41;1042416;28;20817;-55
2023/08/27 01:27:39;;;;;;;6.53;3.72;;;;;;;13.24;100.00;100787.00;1033317;28;20343;-51
2023/08/27 01:28:30;;;;;;;3.78;3.47;;;;;;;13.12;100.00;100794.16;1030970;28;21151;-55
2023/08/27 01:29:40;;;;;;;6.47;4.20;;;;;;;12.97;100.00;100785.81;1035692;28;20308;-50
2023/08/27 01:31:12;;;;;;;3.67;3.35;;;;;;;13.02;100.00;100790.47;1024678;28;20845;-50
2023/08/27 01:32:23;;;;;;;3.85;3.55;;;;;;;13.18;100.00;100785.25;1026221;28;20375;-54
2023/08/27 01:33:12;;;;;;;6.10;3.70;;;;;;;13.18;100.00;100787.94;1038798;28;20297;-55
2023/08/27 01:34:05;;;;;;;4.68;3.90;;;;;;;13.19;100.00;100784.22;1040207;28;20307;-50
2023/08/27 01:34:59;;;;;;;6.18;4.13;;;;;;;13.32;100.00;100793.03;1040934;28;20041;-49
2023/08/27 01:35:43;;;;;;;5.97;4.18;;;;;;;13.33;100.00;100789.31;1035898;28;20833;-54
2023/08/27 01:36:24;;;;;;;4.53;3.88;;;;;;;13.37;100.00;100785.09;1032826;28;20306;-52
2023/08/27 01:37:25;;;;;;;4.70;4.30;;;;;;;13.29;100.00;100794.31;1027398;28;20323;-52
2023/08/27 01:38:07;;;;;;;8.40;4.10;;;;;;;13.24;100.00;100787.00;1034647;28;20050;-51
2023/08/27 01:39:08;;;;;;;5.00;4.07;;;;;;;13.12;100.00;100788.00;1028987;28;21037;-52
2023/08/27 01:40:22;;;;;;;5.05;4.55;;;;;;;13.28;100.00;100793.50;1047489;28;20672;-55
2023/08/27 01:41:20;;;;;;;5.85;3.85;;;;;;;13.28;100.00;100790.81;1049372;28;20298;-54
2023/08/27 01:42:19;;;;;;;3.67;3.38;;;;;;;13.37;100.00;100790.44;1048472;28;20979;-50
2023/08/27 01:42:57;;;;;;;4.82;4.32;;;;;;;13.27;100.00;100797.22;1049737;28;20299;-50
2023/08/27 01:43:37;;;;;;;4.43;4.03;;;;;;;13.45;100.00;100792.78;1044466;28;20090;-50
2023/08/27 01:44:47;;;;;;;3.88;3.58;;;;;;;13.44;100.00;100785.81;1017332;29;20754;-51
2023/08/27 01:45:28;;;;;;;5.93;4.15;;;;;;;13.56;100.00;100783.91;1039341;28;20320;-55
2023/08/27 01:46:29;;;;;;;9.48;5.10;;;;;;;13.58;100.00;100779.13;1028406;28;20326;-54
2023/08/27 01:47:15;;;;;;;4.88;4.43;;;;;;;13.59;100.00;100778.88;1042550;28;20623;-55
2023/08/27 01:48:02;;;;;;;6.10;4.03;;;;;;;13.60;100.00;100779.69;1038003;28;20312;-49
2023/08/27 01:48:53;;;;;;;9.48;4.75;;;;;;;13.44;100.00;100780.47;1025442;28;20310;-54
2023/08/27 01:49:38;;;;;;;4.75;4.00;;;;;;;13.48;100.00;100782.41;1026603;28;20286;-49
2023/08/27 01:50:10;;;;;;;11.75;4.38;;;;;;;13.60;100.00;100774.34;1032765;28;20408;-50
2023/08/27 01:51:15;;;;;;;15.98;7.45;;;;;;;13.65;100.00;100777.13;1040826;28;20306;-53
2023/08/27 01:51:55;;;;;;;4.28;3.97;;;;;;;13.65;100.00;100771.75;1047765;28;20303;-49
2023/08/27 01:53:10;;;;;;;4.28;3.83;;;;;;;13.53;100.00;100766.47;1049176;28;20321;-50
2023/08/27 01:54:13;;;;;;;4.85;3.42;;;;;;;13.55;100.00;100760.88;1043709;28;20303;-55
2023/08/27 01:55:17;;;;;;;5.50;4.13;;;;;;;13.55;100.00;100767.03;1039891;28;20304;-51
2023/08/27 01:56:27;;;;;;;7.75;4.22;;;;;;;13.28;100.00;100756.06;1041953;28;20053;-49
2023/08/27 01:57:09;;;;;;;4.93;3.88;;;;;;;12.92;100.00;100754.44;1040144;28;20838;-51
2023/08/27 01:57:49;;;;;;;4.10;3.80;;;;;;;12.67;100.00;100757.34;1030951;28;20317;-54
2023/08/27 01:58:36;;;;;;;4.57;3.75;;;;;;;12.66;100.00;100750.38;1037314;28;20038;-52
2023/08/27 01:59:36;;;;;;;6.25;4.03;;;;;;;12.65;100.00;100756.78;1038099;28;20917;-49
2023/08/27 02:00:37;;;;;;;3.13;2.88;;;;;;;12.65;100.00;100756.78;1041082;28;20046;-54
2023/08/27 02:01:31;;;;;;;4.15;3.75;;;;;;;12.70;100.00;100753.41;1043066;28;20740;-49
2023/08/27 02:02:22;;;;;;;3.10;2.90;;;;;;;13.06;100.00;100763.03;1042359;28;20442;-54
2023/08/27 02:03:23;;;;;;;4.35;3.95;;;;;;;13.15;100.00;100767.00;1044264;28;20310;-49
2023/08/27 02:04:26;;;;;;;4.13;3.58;;;;;;;13.08;100.00;100765.47;1044222;28;20424;-55
2023/08/27 02:05:09;;;;;;;5.18;3.40;;;;;;;13.19;100.00;100756.66;1036176;28;20296;-54
2023/08/27 02:06:05;;;;;;;;;;;;;;;;;;;;;
2023/08/27 02:06:46;;;;;;;4.10;3.72;;;;;;;12.99;100.00;100763.16;1038790;28;20316;-55
2023/08/27 02:07:37;;;;;;;3.88;3.55;;;;;;;12.99;100.00;100763.16;1045494;28;20717;-54
2023/08/27 02:08:41;;;;;;;3.83;3.53;;;;;;;12.81;100.00;100759.78;1035973;28;20711;-49
2023/08/27 02:09:38;;;;;;;6.57;3.60;;;;;;;12.90;100.00;100763.75;1035520;28;20297;-50
2023/08/27 02:10:18;;;;;;;4.53;3.85;;;;;;;12.94;100.00;100759.56;1043757;28;20381;-49
2023/08/27 02:11:04;;;;;;;4.72;3.55;;;;;;;12.74;100.00;100759.91;1042755;28;20810;-54
2023/08/27 02:11:46;;;;;;;3.97;3.67;;;;;;;12.63;100.00;100761.53;1033151;28;20305;-49
2023/08/27 02:12:29;;;;;;;3.40;3.10;;;;;;;12.93;100.00;100756.06;1031789;28;20309;-50
2023/08/27 02:13:19;;;;;;;3.97;3.67;;;;;;;12.97;100.00;100761.75;1033237;28;20344;-49
2023/08/27 02:14:18;;;;;;;4.85;4.07;;;;;;;13.19;100.00;100756.66;1044143;28;20655;-55
2023/08/27 02:15:10;;;;;;;6.95;4.88;;;;;;;13.03;100.00;100758.16;1046694;28;20398;-54
2023/08/27 02:15:51;;;;;;;4.53;4.13;;;;;;;12.90;100.00;100769.09;1037424;28;20669;-54
2023/08/27 02:16:27;;;;;;;4.78;3.83;;;;;;;13.11;100.00;100759.63;1035585;28;20661;-55
2023/08/27 02:16:59;;;;;;;4.32;3.90;;;;;;;13.19;100.00;100762.81;1035510;28;20128;-54
2023/08/27 02:17:31;;;;;;;7.28;3.72;;;;;;;13.23;100.00;100768.50;1041993;28;20309;-55
2023/08/27 02:18:03;;;;;;;4.95;4.53;;;;;;;13.07;100.00;100772.66;1043572;28;20303;-54
2023/08/27 02:18:35;;;;;;;4.05;3.75;;;;;;;13.09;100.00;100765.22;1043834;28;20037;-54
2023/08/27 02:19:07;;;;;;;4.72;3.60;;;;;;;13.16;100.00;100767.81;1043770;28;20314;-55
2023/08/27 02:19:38;;;;;;;9.00;3.92;;;;;;;13.06;100.00;100778.25;1039317;28;20315;-54
2023/08/27 02:20:10;;;;;;;4.35;3.85;;;;;;;13.11;100.00;100773.81;1035989;28;20060;-54
2023/08/27 02:20:45;;;;;;;4.38;4.05;;;;;;;13.04;100.00;100775.81;1039598;28;20347;-54
2023/08/27 02:21:16;;;;;;;4.50;3.80;;;;;;;12.97;100.00;100769.78;1035928;28;20049;-55
2023/08/27 02:21:51;;;;;;;4.60;4.20;;;;;;;12.91;100.00;100771.53;1036667;28;20057;-49
2023/08/27 02:22:52;;;;;;;7.47;3.33;;;;;;;12.69;100.00;100771.28;1041026;28;20048;-54
2023/08/27 02:23:27;;;;;;;4.18;3.88;;;;;;;12.68;100.00;100776.88;1042965;28;20041;-50
2023/08/27 02:24:22;;;;;;;4.63;4.22;;;;;;;12.87;100.00;100780.22;1042814;28;20542;-49
2023/08/27 02:25:06;;;;;;;4.60;4.20;;;;;;;13.02;100.00;100783.25;1040872;28;20304;-52
2023/08/27 02:25:58;;;;;;;4.88;3.38;;;;;;;13.11;100.00;100781.03;1038554;28;20293;-51
2023/08/27 02:26:43;;;;;;;4.07;3.67;;;;;;;13.19;100.00;100778.88;1034621;28;20316;-54
2023/08/27 02:27:36;;;;;;;3.70;3.35;;;;;;;12.94;100.00;100776.41;1037492;28;20496;-56
2023/08/27 02:28:33;;;;;;;4.55;3.45;;;;;;;13.10;100.00;100779.41;1034271;28;20349;-50
2023/08/27 02:29:22;;;;;;;5.38;3.40;;;;;;;12.86;100.00;100770.59;1034407;28;20297;-54
2023/08/27 02:30:03;;;;;;;3.97;3.58;;;;;;;12.98;100.00;100771.41;1038203;28;20304;-55
2023/08/27 02:31:11;;;;;;;5.15;4.30;;;;;;;13.12;100.00;100764.75;1043099;28;20507;-55
2023/08/27 02:32:09;;;;;;;3.50;3.25;;;;;;;13.30;100.00;100761.97;1036303;28;20300;-50
2023/08/27 02:33:04;;;;;;;3.90;3.58;;;;;;;13.10;100.00;100758.03;1027679;28;20313;-50
2023/08/27 02:33:58;;;;;;;4.10;3.58;;;;;;;13.21;100.00;100752.69;1025487;28;20311;-54
2023/08/27 02:34:41;;;;;;;6.32;3.38;;;;;;;13.30;100.00;100753.94;1037595;28;20296;-54
2023/08/27 02:35:38;;;;;;;6.97;4.43;;;;;;;13.22;100.00;100751.66;1037490;28;20315;-51
2023/08/27 02:36:32;;;;;;;6.57;4.35;;;;;;;13.24;100.00;100749.53;1036530;28;20075;-55
2023/08/27 02:37:18;;;;;;;4.15;3.83;;;;;;;13.20;100.00;100747.59;1031266;28;20215;-55
2023/08/27 02:38:30;;;;;;;4.72;3.90;;;;;;;13.25;100.00;100742.34;1026976;28;20839;-54
2023/08/27 02:39:15;;;;;;;4.88;3.72;;;;;;;13.26;100.00;100742.09;1020441;29;20461;-52
2023/08/27 02:40:13;;;;;;;3.88;3.50;;;;;;;13.42;100.00;100742.38;1031564;28;20317;-54
2023/08/27 02:40:51;;;;;;;9.65;4.00;;;;;;;13.30;100.00;100735.22;1033710;28;20301;-51
2023/08/27 02:41:46;;;;;;;8.73;4.22;;;;;;;13.39;100.00;100737.53;1036224;28;20387;-50
2023/08/27 02:42:31;;;;;;;5.10;4.32;;;;;;;13.42;100.00;100734.38;1032444;28;20133;-51
2023/08/27 02:43:22;;;;;;;4.60;4.20;;;;;;;13.20;100.00;100729.69;1036136;28;20399;-49
2023/08/27 02:44:13;;;;;;;9.40;4.47;;;;;;;13.26;100.00;100731.41;1039211;28;20373;-50
2023/08/27 02:45:00;;;;;;;4.97;3.58;;;;;;;13.38;100.00;100735.91;1037732;28;20048;-54
2023/08/27 02:45:32;;;;;;;7.07;4.32;;;;;;;13.36;100.00;100730.78;1030935;28;20341;-54
2023/08/27 02:46:04;;;;;;;4.50;4.15;;;;;;;13.37;100.00;100726.25;1027023;28;22453;-54
2023/08/27 02:46:36;;;;;;;4.32;4.00;;;;;;;13.22;100.00;100730.25;1032709;28;20197;-55
2023/08/27 02:47:08;;;;;;;7.72;4.00;;;;;;;13.15;100.00;100734.91;1035547;28;20809;-54
2023/08/27 02:47:41;;;;;;;4.65;4.25;;;;;;;13.37;100.00;100727.06;1036096;28;20033;-55
2023/08/27 02:48:13;;;;;;;6.22;5.63;;;;;;;13.51;100.00;100724.94;1033041;28;20320;-54
2023/08/27 02:48:45;;;;;;;4.65;4.07;;;;;;;13.52;100.00;100729.22;1031076;28;20053;-50
2023/08/27 02:49:16;;;;;;;4.40;4.00;;;;;;;13.46;100.00;100739.03;1035340;28;20049;-50
2023/08/27 02:49:49;;;;;;;4.45;4.05;;;;;;;13.45;100.00;100744.63;1040110;28;20045;-54
2023/08/27 02:50:21;;;;;;;4.20;3.80;;;;;;;13.34;100.00;100737.41;1043493;28;20426;-54
2023/08/27 02:50:53;;;;;;;5.15;4.50;;;;;;;13.45;100.00;100729.38;1035315;28;20510;-49
2023/08/27 02:51:24;;;;;;;5.18;3.90;;;;;;;13.52;100.00;100738.06;1030859;28;20082;-49
2023/08/27 02:51:56;;;;;;;8.77;4.22;;;;;;;13.52;100.00;100731.91;1028718;28;20097;-51
2023/08/27 02:52:27;;;;;;;4.25;3.90;;;;;;;13.46;100.00;100725.66;1031417;28;20194;-48
2023/08/27 02:52:59;;;;;;;6.50;4.13;;;;;;;13.47;100.00;100731.81;1035200;28;20042;-50
2023/08/27 02:53:31;;;;;;;9.07;4.53;;;;;;;13.34;100.00;100732.88;1031314;28;20351;-52
2023/08/27 02:54:03;;;;;;;6.82;4.97;;;;;;;13.26;100.00;100736.75;1031004;28;20312;-49
2023/08/27 02:54:35;;;;;;;4.10;3.78;;;;;;;13.44;100.00;100743.00;1029735;28;20039;-49
2023/08/27 02:55:07;;;;;;;4.35;3.78;;;;;;;13.48;100.00;100746.81;1035912;28;20053;-50
2023/08/27 02:55:38;;;;;;;8.93;4.22;;;;;;;13.47;100.00;100740.66;1039117;28;20037;-48
2023/08/27 02:56:10;;;;;;;4.35;3.63;;;;;;;13.51;100.00;100738.31;1038922;28;20244;-49
2023/08/27 02:56:42;;;;;;;4.38;3.97;;;;;;;13.63;100.00;100741.75;1035518;28;20099;-51
2023/08/27 02:57:14;;;;;;;4.65;4.13;;;;;;;13.69;100.00;100740.78;1033095;28;20046;-49
2023/08/27 02:57:45;;;;;;;5.90;4.43;;;;;;;13.65;100.00;100739.63;1039260;28;20045;-50
2023/08/27 02:58:17;;;;;;;4.72;4.25;;;;;;;13.67;100.00;100732.19;1035897;28;20053;-50
2023/08/27 02:58:49;;;;;;;10.65;4.82;;;;;;;13.75;100.00;100729.16;1031350;28;20366;-50
2023/08/27 02:59:21;;;;;;;6.85;4.18;;;;;;;13.66;100.00;100730.56;1035929;28;20401;-48
2023/08/27 02:59:53;;;;;;;4.00;3.67;;;;;;;13.69;100.00;100729.28;1040172;28;20116;-49
2023/08/27 03:00:25;;;;;;;6.15;5.55;;;;;;;13.57;100.00;100732.00;1040300;28;20296;-49
2023/08/27 03:00:57;;;;;;;5.00;4.53;;;;;;;13.56;100.00;100735.72;1047619;28;20044;-50
2023/08/27 03:01:29;;;;;;;5.43;4.10;;;;;;;13.59;100.00;100735.25;1047073;28;20032;-50
2023/08/27 03:02:00;;;;;;;5.32;4.18;;;;;;;13.65;100.00;100723.59;1037244;28;20216;-49
2023/08/27 03:02:32;;;;;;;4.40;3.50;;;;;;;13.62;100.00;100724.06;1039515;28;20119;-49
2023/08/27 03:03:04;;;;;;;4.57;4.13;;;;;;;13.62;100.00;100726.75;1039685;28;20863;-50
2023/08/27 03:03:35;;;;;;;5.03;3.60;;;;;;;13.67;100.00;100726.03;1040090;28;20042;-52
2023/08/27 03:04:07;;;;;;;6.15;4.13;;;;;;;13.64;100.00;100715.78;1039500;28;20095;-48
2023/08/27 03:04:39;;;;;;;6.07;5.22;;;;;;;13.51;100.00;100727.59;1039028;28;20126;-50
2023/08/27 03:05:10;;;;;;;4.45;4.10;;;;;;;13.57;100.00;100715.94;1040054;28;20717;-53
2023/08/27 03:05:42;;;;;;;6.00;3.88;;;;;;;13.59;100.00;100714.66;1043588;28;20048;-49
2023/08/27 03:06:14;;;;;;;7.55;5.45;;;;;;;13.52;100.00;100722.00;1043706;28;20415;-49
2023/08/27 03:06:46;;;;;;;9.93;4.53;;;;;;;13.60;100.00;100720.81;1048086;28;20457;-50
2023/08/27 03:07:17;;;;;;;5.50;5.00;;;;;;;13.57;100.00;100726.66;1047702;28;20036;-51
2023/08/27 03:07:49;;;;;;;5.25;4.75;;;;;;;13.59;100.00;100729.91;1043398;28;20474;-49
2023/08/27 03:08:20;;;;;;;10.23;4.13;;;;;;;13.50;100.00;100721.44;1039685;28;20041;-51
2023/08/27 03:08:52;;;;;;;5.50;4.75;;;;;;;13.61;100.00;100712.53;1039158;28;20038;-50
2023/08/27 03:09:24;;;;;;;7.15;4.30;;;;;;;13.71;100.00;100721.84;1039810;28;20546;-51
2023/08/27 03:09:56;;;;;;;7.53;4.68;;;;;;;13.55;100.00;100723.41;1043761;28;20037;-50
2023/08/27 03:10:27;;;;;;;10.45;6.28;;;;;;;13.63;100.00;100724.88;1043599;28;20812;-49
2023/08/27 03:10:59;;;;;;;4.22;3.80;;;;;;;13.46;100.00;100728.31;1047659;28;20052;-50
2023/08/27 03:11:31;;;;;;;6.55;4.30;;;;;;;13.32;100.00;100718.94;1044039;28;20214;-50
2023/08/27 03:12:02;;;;;;;4.80;4.18;;;;;;;13.30;100.00;100729.88;1043199;28;20036;-51
2023/08/27 03:12:34;;;;;;;7.40;4.22;;;;;;;13.43;100.00;100733.34;1043076;28;20041;-51
2023/08/27 03:13:06;;;;;;;5.68;4.53;;;;;;;13.27;100.00;100727.69;1044045;28;20128;-50
2023/08/27 03:13:37;;;;;;;5.55;5.05;;;;;;;13.34;100.00;100732.88;1047513;28;20040;-50
2023/08/27 03:14:09;;;;;;;4.93;4.43;;;;;;;13.33;100.00;100730.44;1043341;28;20044;-54
2023/08/27 03:14:41;;;;;;;5.30;4.45;;;;;;;13.48;100.00;100725.41;1039712;28;20091;-54
2023/08/27 03:15:12;;;;;;;13.20;4.57;;;;;;;13.51;100.00;100730.28;1039553;28;20411;-54
2023/08/27 03:15:45;;;;;;;6.88;4.72;;;;;;;13.51;100.00;100732.97;1039871;28;20063;-55
2023/08/27 03:16:16;;;;;;;4.65;4.25;;;;;;;13.59;100.00;100737.94;1043977;28;20458;-54
2023/08/27 03:16:48;;;;;;;5.25;4.75;;;;;;;13.47;100.00;100742.53;1045516;28;20045;-54